• Join FlightAware (Why Join?)
  • Login
  • US Flag 
09:47AM EDT


 

Airport Tracker/Info


-or-


 

Live Flight TrackerFlight Track Log ✈ VH-FVW ✈ 27-Jun-2013 ✈ YSCN / CDU - YSCN / CDU

Flight Track Log - Related Links

Times and Time Zones

All times are in EDT time to prevent confusion due to time zone crossing. See the VH-FVW flight status page for this flight to view local times or setup timezone preferences in your user account.

Time Position Orientation Groundspeed Altitude Reporting Facility
EDT Latitude Longitude Course Direction KTS MPH feet Rate Location/Type
12:51AM -34.0365 150.5464 330° Northwest 96 110 2,900  Level Aus ATC (RADAR)
12:51AM -34.0207 150.5355 330° Northwest 96 110 3,000 -180 Climbing Aus ATC (RADAR)
12:52AM -34.0081 150.5447 31° Northeast 96 110 2,700 -600 Descending Aus ATC (RADAR)
12:52AM -34.0124 150.5624 106° East 91 105 2,300 -720 Descending Aus ATC (RADAR)
12:56AM -33.8850 150.5917 360° North 6,700 1,500 Climbing Aus ATC (Calculated)
12:57AM -33.8850 150.5917 360° North 9,100 2,280 Climbing Aus ATC (Calculated)
12:57AM -33.8850 150.5917 153° Southeast 9,100  Level Aus ATC (Calculated)
12:58AM -33.9082 150.6059 153° Southeast  Level FlightAware Approximate
12:59AM -33.9075 150.6055 153° Southeast  Level FlightAware Approximate
01:00AM -33.9204 150.6135 153° Southeast  Level FlightAware Approximate
01:01AM -33.9333 150.6214 153° Southeast  Level Estimated
01:02AM -33.9462 150.6293 153° Southeast  Level Estimated
01:03AM -33.9591 150.6372 153° Southeast  Level Estimated
01:03AM -33.7583 150.7000 192° South 5,400  Level Aus ATC (Calculated)
01:04AM -33.9719 150.6451 153° Southeast  Level Estimated
01:05AM -33.7778 150.6991 153° Southeast  Level Estimated
01:06AM -33.7923 150.6985 153° Southeast  Level Estimated
01:07AM -33.8067 150.6978 153° Southeast  Level Estimated
01:08AM -33.8212 150.6972 153° Southeast  Level Estimated
01:09AM -33.8356 150.6965 153° Southeast  Level Estimated
01:10AM -33.8501 150.6959 153° Southeast  Level Estimated
01:10AM -33.8850 150.5917 153° Southeast  Level Aus ATC (Calculated)
01:11AM -33.8979 150.5996 153° Southeast  Level Estimated
01:12AM -33.9108 150.6075 153° Southeast  Level Estimated
01:13AM -33.9236 150.6154 153° Southeast  Level Estimated
01:14AM -33.9365 150.6234 153° Southeast  Level Estimated
01:15AM -33.9494 150.6313 153° Southeast  Level Estimated
01:16AM -33.9623 150.6392 153° Southeast  Level Estimated
01:16AM -34.0402 150.6872 333° Northwest  Level Aus ATC (Calculated)
01:17AM -33.9752 150.6471 153° Southeast  Level Estimated
01:18AM -34.0403 150.6872 153° Southeast  Level Estimated
01:19AM -34.0403 150.6872 153° Southeast  Level Estimated
01:20AM -34.0403 150.6872 153° Southeast  Level Estimated
01:21AM -34.0403 150.6872 153° Southeast  Level Estimated
01:22AM -34.0403 150.6872 153° Southeast  Level Estimated
01:23AM -34.0403 150.6872 153° Southeast  Level Estimated
01:24AM -34.0403 150.6872 153° Southeast  Level Estimated